Cuor Di Leone — V7YK2 — position and weather

sailwx.info

Track history (hours):
 
Tides and Currents Weather Stations Pressure Air Temp Water Temp Dewpoint Dewpoint Depression Visibility Wind Speed Wind Dir Waves Ship Positions

Cuor Di Leone

Last reported at 2018-Apr-19 19:35 UTC. Time now 2018-Apr-21 19:00 UTC.
Position N 26°02' W 079°46'.

Length 49 m; draft 3 m.

Type: Other ship. MMSI: 319013700.

Date/timePositionNaut miles runAvg speedWind from/ knotsBaromVisibWave heightAir tempDewpointWater temp
2018-Apr-19 19:35N 26°02' W 079°46'1 9.9
2018-Apr-19 19:29N 26°02' W 079°47'5 9.7
2018-Apr-19 19:00N 26°03' W 079°52'5 9.2
2018-Apr-19 18:30N 26°05' W 079°57'5 9.4
2018-Apr-19 18:00N 26°06' W 080°02'5 9.5
2018-Apr-19 17:30N 26°06' W 080°07'1 2.0
2018-Apr-19 17:00N 26°07' W 080°06'0 0.0
2018-Apr-19 16:30N 26°07' W 080°06'0 0.0
2018-Apr-19 16:00N 26°07' W 080°06'0 0.0
2018-Apr-19 15:30N 26°07' W 080°06'0 0.0
2018-Apr-19 15:00N 26°07' W 080°06'0 0.0
2018-Apr-19 14:30N 26°07' W 080°06'0 0.0
2018-Apr-19 14:00N 26°07' W 080°06'0 0.0
2018-Apr-19 13:30N 26°07' W 080°06'0 0.0
2018-Apr-19 13:00N 26°07' W 080°06'0 0.0
2018-Apr-19 12:30N 26°07' W 080°06'0 0.0
2018-Apr-19 12:00N 26°07' W 080°06'0 0.0
2018-Apr-19 11:30N 26°07' W 080°06'0 0.0
2018-Apr-19 10:59N 26°07' W 080°06'0 0.0
2018-Apr-19 10:30N 26°07' W 080°06'0 0.0
2018-Apr-19 09:59N 26°07' W 080°06'0 0.0
2018-Apr-19 09:30N 26°07' W 080°06'0 0.0
2018-Apr-19 08:58N 26°07' W 080°06'0 0.0
2018-Apr-19 08:27N 26°07' W 080°06'0 0.0
2018-Apr-19 08:00N 26°07' W 080°06'0 0.0
2018-Apr-19 07:30N 26°07' W 080°06'0 0.0
2018-Apr-19 07:00N 26°07' W 080°06'0 0.0
2018-Apr-19 06:30N 26°07' W 080°06'0 0.0
2018-Apr-19 06:00N 26°07' W 080°06'0 0.0
2018-Apr-19 05:30N 26°07' W 080°06'0 0.0
2018-Apr-19 04:59N 26°07' W 080°06'0 0.0
2018-Apr-19 04:29N 26°07' W 080°06'0 0.0
2018-Apr-19 04:00N 26°07' W 080°06'0 0.0
2018-Apr-19 03:30N 26°07' W 080°06'0 0.0
2018-Apr-19 03:00N 26°07' W 080°06'0 0.0
2018-Apr-19 02:30N 26°07' W 080°06'0 0.0
2018-Apr-19 02:00N 26°07' W 080°06'0 0.0
2018-Apr-19 01:30N 26°07' W 080°06'0 0.0
2018-Apr-19 00:58N 26°07' W 080°06'0 0.0
2018-Apr-19 00:30N 26°07' W 080°06'0 0.0
2018-Apr-18 23:59N 26°07' W 080°06'0 0.0
2018-Apr-18 23:30N 26°07' W 080°06'0 0.0
2018-Apr-18 23:00N 26°07' W 080°06'0 0.6
2018-Apr-18 22:30N 26°07' W 080°07'0 0.0
2018-Apr-18 22:00N 26°07' W 080°07'0 0.0
2018-Apr-18 21:30N 26°07' W 080°07'0 0.0
2018-Apr-18 21:00N 26°07' W 080°07'0 0.0
2018-Apr-18 20:31N 26°07' W 080°07'0 0.0
2018-Apr-18 20:00N 26°07' W 080°07'0 0.9
2018-Apr-18 19:30N 26°07' W 080°07'3 5.7
2018-Apr-18 19:01N 26°06' W 080°04'611.5
2018-Apr-18 18:30N 26°11' W 080°04'611.2
2018-Apr-18 18:00N 26°06' W 080°05'2 4.1
2018-Apr-18 17:30N 26°07' W 080°07'0 0.1
2018-Apr-18 16:52N 26°07' W 080°06'0 0.0
2018-Apr-18 16:22N 26°07' W 080°06'0 0.0
2018-Apr-18 15:55N 26°07' W 080°07'0 0.0
2018-Apr-18 15:22N 26°07' W 080°06'0 0.0
2018-Apr-18 14:55N 26°07' W 080°07'0 0.0
2018-Apr-18 14:10N 26°07' W 080°07'0 0.0
2018-Apr-18 13:55N 26°07' W 080°06'0 0.0
2018-Apr-18 13:25N 26°07' W 080°06'0 0.0
2018-Apr-18 12:55N 26°07' W 080°07'0 0.0
2018-Apr-18 12:25N 26°07' W 080°07'0 0.0
2018-Apr-18 11:40N 26°07' W 080°07'0 0.0
2018-Apr-18 11:22N 26°07' W 080°07'0 0.0
2018-Apr-18 10:58N 26°07' W 080°06'0 0.0
2018-Apr-18 10:28N 26°07' W 080°07'0 0.0
2018-Apr-18 09:58N 26°07' W 080°07'0 0.0
2018-Apr-18 09:28N 26°07' W 080°06'0 0.0
2018-Apr-18 08:58N 26°07' W 080°07'0 0.0
2018-Apr-18 08:16N 26°07' W 080°07'0 0.0
2018-Apr-18 07:58N 26°07' W 080°07'0 0.0
2018-Apr-18 07:16N 26°07' W 080°07'0 0.0
2018-Apr-18 06:49N 26°07' W 080°07'0 0.0
2018-Apr-18 06:28N 26°07' W 080°07'0 0.0
2018-Apr-18 05:58N 26°07' W 080°07'0 0.0
2018-Apr-18 05:28N 26°07' W 080°07'0 0.0
2018-Apr-18 04:58N 26°07' W 080°07'0 0.0
2018-Apr-18 04:19N 26°07' W 080°07'0 0.0
2018-Apr-18 03:49N 26°07' W 080°06'0 0.0
2018-Apr-18 03:22N 26°07' W 080°06'0 0.0
2018-Apr-18 02:52N 26°07' W 080°07'0 0.0
2018-Apr-18 02:22N 26°07' W 080°07'0 0.0
2018-Apr-18 01:55N 26°07' W 080°07'0 0.0
2018-Apr-18 01:22N 26°07' W 080°06'0 0.0
2018-Apr-18 00:52N 26°07' W 080°07'0 0.0
2018-Apr-18 00:25N 26°07' W 080°06'0 0.0
2018-Apr-17 23:55N 26°07' W 080°07'0 0.0
2018-Apr-17 23:25N 26°07' W 080°07'0 0.0
2018-Apr-17 22:55N 26°07' W 080°07'0 0.0
2018-Apr-17 22:25N 26°07' W 080°07'0 0.0
2018-Apr-17 21:55N 26°07' W 080°07'0 0.0
2018-Apr-17 21:28N 26°07' W 080°06'0 0.0
2018-Apr-17 20:55N 26°07' W 080°06'0 0.0
2018-Apr-17 20:28N 26°07' W 080°06'0 0.0
2018-Apr-17 19:58N 26°07' W 080°06'0 0.0
2018-Apr-17 19:28N 26°07' W 080°06'0 0.0
2018-Apr-17 18:58N 26°07' W 080°06'0 0.0
2018-Apr-17 18:28N 26°07' W 080°06'0 0.0
2018-Apr-17 17:46N 26°07' W 080°06'0 0.0
2018-Apr-17 17:28N 26°07' W 080°06'0 0.0
2018-Apr-17 16:58N 26°07' W 080°06'0 0.0
2018-Apr-17 16:28N 26°07' W 080°06'0 0.0
2018-Apr-17 15:58N 26°07' W 080°06'0 0.0
2018-Apr-17 15:28N 26°07' W 080°06'0 0.0
2018-Apr-17 14:58N 26°07' W 080°06'0 0.0
2018-Apr-17 14:19N 26°07' W 080°06'0 0.0
2018-Apr-17 13:58N 26°07' W 080°06'0 0.0
2018-Apr-17 13:22N 26°07' W 080°06'0 0.0
2018-Apr-17 12:52N 26°07' W 080°06'0 0.0
2018-Apr-17 12:22N 26°07' W 080°06'0 0.0
2018-Apr-17 11:56N 26°07' W 080°06'0 0.0
2018-Apr-17 11:30N 26°07' W 080°06'0 0.0
2018-Apr-17 10:59N 26°07' W 080°06'0 0.0
2018-Apr-17 10:30N 26°07' W 080°06'0 0.0
2018-Apr-17 10:00N 26°07' W 080°06'0 0.0
2018-Apr-17 09:30N 26°07' W 080°06'0 0.0
2018-Apr-17 09:00N 26°07' W 080°06'0 0.0
2018-Apr-17 08:30N 26°07' W 080°06'0 0.0
2018-Apr-17 08:00N 26°07' W 080°06'0 0.0
2018-Apr-17 07:30N 26°07' W 080°06'0 0.0
2018-Apr-17 06:59N 26°07' W 080°06'0 0.0
2018-Apr-17 06:30N 26°07' W 080°06'0 0.0
2018-Apr-17 06:00N 26°07' W 080°06'0 0.0
2018-Apr-17 05:29N 26°07' W 080°06'0 0.0
2018-Apr-17 05:00N 26°07' W 080°06'0 0.0
2018-Apr-17 04:30N 26°07' W 080°06'0 0.0
2018-Apr-17 04:00N 26°07' W 080°06'0 0.0
2018-Apr-17 03:30N 26°07' W 080°06'0 0.0
2018-Apr-17 03:00N 26°07' W 080°06'0 0.0
2018-Apr-17 02:30N 26°07' W 080°06'0 0.0
2018-Apr-17 01:58N 26°07' W 080°06'0 0.0
2018-Apr-17 01:27N 26°07' W 080°06'0 0.0
2018-Apr-17 01:00N 26°07' W 080°06'0 0.0
2018-Apr-17 00:30N 26°07' W 080°06'0 0.0
2018-Apr-17 00:00N 26°07' W 080°06'0 0.0
2018-Apr-16 23:30N 26°07' W 080°06'0 0.0
2018-Apr-16 23:00N 26°07' W 080°06'0 0.0
2018-Apr-16 22:30N 26°07' W 080°06'0 0.0
2018-Apr-16 21:59N 26°07' W 080°06'0 0.0
2018-Apr-16 21:30N 26°07' W 080°06'0 0.0
2018-Apr-16 21:00N 26°07' W 080°06'0 0.0
2018-Apr-16 20:30N 26°07' W 080°06'0 0.0
2018-Apr-16 20:00N 26°07' W 080°06'0 0.0
2018-Apr-16 19:30N 26°07' W 080°06'0 0.0
2018-Apr-16 19:00N 26°07' W 080°06'0 0.0
2018-Apr-16 18:30N 26°07' W 080°06'0 0.0
2018-Apr-16 18:00N 26°07' W 080°06'0 0.0
2018-Apr-16 17:30N 26°07' W 080°06'0 0.0
2018-Apr-16 16:59N 26°07' W 080°06'0 0.0
2018-Apr-16 16:29N 26°07' W 080°06'0 0.0
2018-Apr-16 16:00N 26°07' W 080°06'0 0.0
2018-Apr-16 15:29N 26°07' W 080°06'0 0.0
2018-Apr-16 15:00N 26°07' W 080°06'0 0.0
2018-Apr-16 14:30N 26°07' W 080°06'0 0.0
2018-Apr-16 14:00N 26°07' W 080°06'0 0.0
2018-Apr-16 13:30N 26°07' W 080°06'0 0.0
2018-Apr-16 13:00N 26°07' W 080°06'0 0.0
2018-Apr-16 12:29N 26°07' W 080°06'0 0.0
2018-Apr-16 12:00N 26°07' W 080°06'0 0.0
2018-Apr-16 11:30N 26°07' W 080°06'0 0.0
2018-Apr-16 10:59N 26°07' W 080°06'0 0.0
2018-Apr-16 10:30N 26°07' W 080°06'0 0.0
2018-Apr-16 10:00N 26°07' W 080°06'0 0.0
2018-Apr-16 09:30N 26°07' W 080°06'0 0.0
2018-Apr-16 09:00N 26°07' W 080°06'0 0.0
2018-Apr-16 08:30N 26°07' W 080°06'0 0.0
2018-Apr-16 08:00N 26°07' W 080°06'0 0.0
2018-Apr-16 07:29N 26°07' W 080°06'0 0.0
2018-Apr-16 07:00N 26°07' W 080°06'0 0.0
2018-Apr-16 06:30N 26°07' W 080°06'0 0.0
2018-Apr-16 06:00N 26°07' W 080°06'0 0.0
2018-Apr-16 05:30N 26°07' W 080°06'0 0.0
2018-Apr-16 05:00N 26°07' W 080°06'0 0.0
2018-Apr-16 04:30N 26°07' W 080°06'0 0.0
2018-Apr-16 04:00N 26°07' W 080°06'0 0.0
2018-Apr-16 03:30N 26°07' W 080°06'0 0.0
2018-Apr-16 03:00N 26°07' W 080°06'0 0.0
2018-Apr-16 02:26N 26°07' W 080°06'0 0.0
2018-Apr-16 02:00N 26°07' W 080°06'0 0.0
2018-Apr-16 01:30N 26°07' W 080°06'0 0.0
2018-Apr-16 01:00N 26°07' W 080°06'0 0.0
2018-Apr-16 00:30N 26°07' W 080°06'0 0.0
2018-Apr-16 00:00N 26°07' W 080°06'0 0.0
2018-Apr-15 23:30N 26°07' W 080°06'0 0.0
2018-Apr-15 23:00N 26°07' W 080°06'0 0.0
2018-Apr-15 22:28N 26°07' W 080°06'0 0.0
2018-Apr-15 22:00N 26°07' W 080°06'0 0.0
2018-Apr-15 21:30N 26°07' W 080°06'0 0.0
2018-Apr-15 21:00N 26°07' W 080°06'0 0.0
2018-Apr-15 20:30N 26°07' W 080°06'0 0.0
2018-Apr-15 20:00N 26°07' W 080°06'0 0.0
2018-Apr-15 19:30N 26°07' W 080°06'0 0.0
2018-Apr-15 19:00N 26°07' W 080°06'0 0.0
2018-Apr-15 18:30N 26°07' W 080°06'0 0.0
2018-Apr-15 17:59N 26°07' W 080°06'0 0.0
2018-Apr-15 17:30N 26°07' W 080°06'0 0.0
2018-Apr-15 17:00N 26°07' W 080°06'0 0.0
2018-Apr-15 16:30N 26°07' W 080°06'0 0.0
2018-Apr-15 16:00N 26°07' W 080°06'0 0.0
2018-Apr-15 15:30N 26°07' W 080°06'0 0.0
2018-Apr-15 15:00N 26°07' W 080°06'0 0.0
2018-Apr-15 14:30N 26°07' W 080°06'0 0.0
2018-Apr-15 14:00N 26°07' W 080°06'0 0.0
2018-Apr-15 13:30N 26°07' W 080°06'0 0.0
2018-Apr-15 12:58N 26°07' W 080°06'0 0.0
2018-Apr-15 12:29N 26°07' W 080°06'0 0.0
2018-Apr-15 11:59N 26°07' W 080°06'0 0.0
2018-Apr-15 11:30N 26°07' W 080°06'0 0.0
2018-Apr-15 11:00N 26°07' W 080°06'0 0.0
2018-Apr-15 10:30N 26°07' W 080°06'0 0.0
2018-Apr-15 10:00N 26°07' W 080°06'0 0.0
2018-Apr-15 09:30N 26°07' W 080°06'0 0.0
2018-Apr-15 09:00N 26°07' W 080°06'0 0.0
2018-Apr-15 08:30N 26°07' W 080°06'0 0.0
2018-Apr-15 07:59N 26°07' W 080°06'0 0.0
2018-Apr-15 07:30N 26°07' W 080°06'0 0.0
2018-Apr-15 07:00N 26°07' W 080°06'0 0.0
2018-Apr-15 06:30N 26°07' W 080°06'0 0.0
2018-Apr-15 06:00N 26°07' W 080°06'0 0.0
2018-Apr-15 05:30N 26°07' W 080°06'0 0.0
2018-Apr-15 05:00N 26°07' W 080°06'0 0.0
2018-Apr-15 04:30N 26°07' W 080°06'0 0.0
2018-Apr-15 04:00N 26°07' W 080°06'0 0.0
2018-Apr-15 03:30N 26°07' W 080°06'0 0.0
2018-Apr-15 03:00N 26°07' W 080°06'0 0.0
2018-Apr-15 02:27N 26°07' W 080°06'0 0.0
2018-Apr-15 02:00N 26°07' W 080°06'0 0.0
2018-Apr-15 01:30N 26°07' W 080°06'0 0.0
2018-Apr-15 01:00N 26°07' W 080°06'0 0.0
2018-Apr-15 00:29N 26°07' W 080°06'0 0.0
2018-Apr-15 00:00N 26°07' W 080°06'0 0.0
2018-Apr-14 23:29N 26°07' W 080°06'0 0.0
2018-Apr-14 23:00N 26°07' W 080°06'0 0.0
2018-Apr-14 22:29N 26°07' W 080°06'0 0.0
2018-Apr-14 21:58N 26°07' W 080°06'0 0.0
2018-Apr-14 21:30N 26°07' W 080°06'0 0.0
2018-Apr-14 21:00N 26°07' W 080°06'0 0.0
2018-Apr-14 20:30N 26°07' W 080°06'0 0.0
2018-Apr-14 20:00N 26°07' W 080°06'0 0.0
2018-Apr-14 19:30N 26°07' W 080°06'0 0.0
2018-Apr-14 19:00N 26°07' W 080°06'0 0.0
2018-Apr-14 18:30N 26°07' W 080°06'0 0.0
2018-Apr-14 17:59N 26°07' W 080°06'0 0.0
2018-Apr-14 17:30N 26°07' W 080°06'0 0.0
2018-Apr-14 17:00N 26°07' W 080°06'0 0.0
2018-Apr-14 16:30N 26°07' W 080°06'0 0.0
2018-Apr-14 16:00N 26°07' W 080°06'0 0.0
2018-Apr-14 15:30N 26°07' W 080°06'0 0.0
2018-Apr-14 15:00N 26°07' W 080°06'0 0.0
2018-Apr-14 14:29N 26°07' W 080°06'0 0.0
2018-Apr-14 14:00N 26°07' W 080°06'0 0.0
2018-Apr-14 13:30N 26°07' W 080°06'0 0.0
2018-Apr-14 13:00N 26°07' W 080°06'0 0.0
2018-Apr-14 12:30N 26°07' W 080°06'0 0.0
2018-Apr-14 12:00N 26°07' W 080°06'0 0.0
2018-Apr-14 11:30N 26°07' W 080°06'0 0.0
2018-Apr-14 11:00N 26°07' W 080°06'0 0.0
2018-Apr-14 10:30N 26°07' W 080°06'0 0.0
2018-Apr-14 09:58N 26°07' W 080°06'0 0.0
2018-Apr-14 09:30N 26°07' W 080°06'0 0.0
2018-Apr-14 08:58N 26°07' W 080°06'0 0.0
2018-Apr-14 08:29N 26°07' W 080°06'0 0.0
2018-Apr-14 08:00N 26°07' W 080°06'0 0.0
2018-Apr-14 07:30N 26°07' W 080°06'0 0.0
2018-Apr-14 07:00N 26°07' W 080°06'0 0.0
2018-Apr-14 06:30N 26°07' W 080°06'0 0.0
2018-Apr-14 06:00N 26°07' W 080°06'0 0.0
2018-Apr-14 05:30N 26°07' W 080°06'0 0.0
2018-Apr-14 05:00N 26°07' W 080°06'0 0.0
2018-Apr-14 04:30N 26°07' W 080°06'0 0.0
2018-Apr-14 04:00N 26°07' W 080°06'0 0.0
2018-Apr-14 03:30N 26°07' W 080°06'0 0.0
2018-Apr-14 03:00N 26°07' W 080°06'0 0.0
2018-Apr-14 02:29N 26°07' W 080°06'0 0.0
2018-Apr-14 02:00N 26°07' W 080°06'0 0.0
2018-Apr-14 01:30N 26°07' W 080°06'0 0.0
2018-Apr-14 00:59N 26°07' W 080°06'0 0.0
2018-Apr-14 00:30N 26°07' W 080°06'0 0.0
2018-Apr-14 00:00N 26°07' W 080°06'0 0.0
2018-Apr-13 23:30N 26°07' W 080°06'0 0.0
2018-Apr-13 23:00N 26°07' W 080°06'0 0.0
2018-Apr-13 22:30N 26°07' W 080°06'0 0.0
2018-Apr-13 21:59N 26°07' W 080°06'0 0.0
2018-Apr-13 21:29N 26°07' W 080°06'0 0.0
2018-Apr-13 20:59N 26°07' W 080°06'0 0.0
2018-Apr-13 20:30N 26°07' W 080°06'0 0.0
2018-Apr-13 19:59N 26°07' W 080°06'0 0.0
2018-Apr-13 19:29N 26°07' W 080°06'0 0.0
2018-Apr-13 19:00N 26°07' W 080°06'0 0.0
2018-Apr-13 18:30N 26°07' W 080°06'0 0.0
2018-Apr-13 18:00N 26°07' W 080°06'0 0.0
2018-Apr-13 17:30N 26°07' W 080°06'0 0.0
2018-Apr-13 17:00N 26°07' W 080°06'0 0.0
2018-Apr-13 16:30N 26°07' W 080°06'0 0.0
2018-Apr-13 16:00N 26°07' W 080°06'0 0.0
2018-Apr-13 15:28N 26°07' W 080°06'0 0.0
2018-Apr-13 15:00N 26°07' W 080°06'0 0.0
2018-Apr-13 14:30N 26°07' W 080°06'0 0.0
2018-Apr-13 13:58N 26°07' W 080°06'0 0.0
2018-Apr-13 13:29N 26°07' W 080°06'0 0.0
2018-Apr-13 13:00N 26°07' W 080°06'0 0.0
2018-Apr-13 12:30N 26°07' W 080°06'0 0.0
2018-Apr-13 12:00N 26°07' W 080°06'0 0.0
2018-Apr-13 11:30N 26°07' W 080°06'0 0.0
2018-Apr-13 11:00N 26°07' W 080°06'0 0.0
2018-Apr-13 10:28N 26°07' W 080°06'0 0.0
2018-Apr-13 10:00N 26°07' W 080°06'0 0.0
2018-Apr-13 09:30N 26°07' W 080°06'0 0.0
2018-Apr-13 09:00N 26°07' W 080°06'0 0.0
2018-Apr-13 08:30N 26°07' W 080°06'0 0.0
2018-Apr-13 08:00N 26°07' W 080°06'0 0.0
2018-Apr-13 07:29N 26°07' W 080°06'0 0.0
2018-Apr-13 07:00N 26°07' W 080°06'0 0.0
2018-Apr-13 06:29N 26°07' W 080°06'0 0.0
2018-Apr-13 06:00N 26°07' W 080°06'0 0.0
2018-Apr-13 05:30N 26°07' W 080°06'0 0.0
2018-Apr-13 05:00N 26°07' W 080°06'0 0.0
2018-Apr-13 04:30N 26°07' W 080°06'0 0.0
2018-Apr-13 04:00N 26°07' W 080°06'0 0.0
2018-Apr-13 03:29N 26°07' W 080°06'0 0.0
2018-Apr-13 03:00N 26°07' W 080°06'0 0.0
2018-Apr-13 02:27N 26°07' W 080°06'0 0.0
2018-Apr-13 02:00N 26°07' W 080°06'0 0.0
2018-Apr-13 01:30N 26°07' W 080°06'0 0.0
2018-Apr-13 01:00N 26°07' W 080°06'0 0.0
2018-Apr-13 00:30N 26°07' W 080°06'0 0.0
2018-Apr-13 00:00N 26°07' W 080°06'0 0.0
2018-Apr-12 23:30N 26°07' W 080°06'0 0.0
2018-Apr-12 23:00N 26°07' W 080°06'0 0.0
2018-Apr-12 22:30N 26°07' W 080°06'0 0.0
2018-Apr-12 22:00N 26°07' W 080°06'0 0.0
2018-Apr-12 21:29N 26°07' W 080°06'0 0.0
2018-Apr-12 21:00N 26°07' W 080°06'0 0.0
2018-Apr-12 20:30N 26°07' W 080°06'0 0.0
2018-Apr-12 20:00N 26°07' W 080°06'0 0.0
2018-Apr-12 19:29N 26°07' W 080°06'0 0.0
2018-Apr-12 19:00N 26°07' W 080°06'0 0.0
2018-Apr-12 18:30N 26°07' W 080°06'0 0.0
2018-Apr-12 18:00N 26°07' W 080°06'0 0.0
2018-Apr-12 17:30N 26°07' W 080°06'0 0.0
2018-Apr-12 17:00N 26°07' W 080°06'0 0.0
2018-Apr-12 16:30N 26°07' W 080°06'0 0.0
2018-Apr-12 16:00N 26°07' W 080°06'0 0.0
2018-Apr-12 15:30N 26°07' W 080°06'0 0.0
2018-Apr-12 15:00N 26°07' W 080°06'0 0.0
2018-Apr-12 14:30N 26°07' W 080°06'0 0.0
2018-Apr-12 14:00N 26°07' W 080°06'0 0.0
2018-Apr-12 13:30N 26°07' W 080°06'0 0.0
2018-Apr-12 13:00N 26°07' W 080°06'0 0.0
2018-Apr-12 12:30N 26°07' W 080°06'0 0.0
2018-Apr-12 12:00N 26°07' W 080°06'0 0.0
2018-Apr-12 11:30N 26°07' W 080°06'0 0.0
2018-Apr-12 11:00N 26°07' W 080°06'0 0.0
2018-Apr-12 10:30N 26°07' W 080°06'0 0.0
2018-Apr-12 10:00N 26°07' W 080°06'0 0.0
2018-Apr-12 09:30N 26°07' W 080°06'0 0.0
2018-Apr-12 09:00N 26°07' W 080°06'0 0.0
2018-Apr-12 08:30N 26°07' W 080°06'0 0.0
2018-Apr-12 08:00N 26°07' W 080°06'0 0.0
2018-Apr-12 07:30N 26°07' W 080°06'0 0.0
2018-Apr-12 07:00N 26°07' W 080°06'0 0.0
2018-Apr-12 06:30N 26°07' W 080°06'0 0.0
2018-Apr-12 06:00N 26°07' W 080°06'0 0.0
2018-Apr-12 05:30N 26°07' W 080°06'0 0.0
2018-Apr-12 05:00N 26°07' W 080°06'0 0.0
2018-Apr-12 04:30N 26°07' W 080°06'0 0.0
2018-Apr-12 04:00N 26°07' W 080°06'0 0.0
2018-Apr-12 03:30N 26°07' W 080°06'0 0.0
2018-Apr-12 03:00N 26°07' W 080°06'0 0.0
2018-Apr-12 02:30N 26°07' W 080°06'0 0.0
2018-Apr-12 02:00N 26°07' W 080°06'0 0.0
2018-Apr-12 01:30N 26°07' W 080°06'0 0.0
2018-Apr-12 01:00N 26°07' W 080°06'0 0.0
2018-Apr-12 00:30N 26°07' W 080°06'0 0.0
2018-Apr-12 00:00N 26°07' W 080°06'0 0.0
2018-Apr-11 23:30N 26°07' W 080°06'0 0.0
2018-Apr-11 23:00N 26°07' W 080°06'0 0.0
2018-Apr-11 22:29N 26°07' W 080°06'0 0.0
2018-Apr-11 21:59N 26°07' W 080°06'0 0.0
2018-Apr-11 21:30N 26°07' W 080°06'0 0.0
2018-Apr-11 20:58N 26°07' W 080°06'0 0.0
2018-Apr-11 20:29N 26°07' W 080°06'0 0.0
2018-Apr-11 19:59N 26°07' W 080°06'0 0.0
2018-Apr-11 19:30N 26°07' W 080°06'0 0.0
2018-Apr-11 18:59N 26°07' W 080°06'0 0.0
2018-Apr-11 18:30N 26°07' W 080°06'0 0.0
2018-Apr-11 18:00N 26°07' W 080°06'0 0.0
2018-Apr-11 17:30N 26°07' W 080°06'0 0.0
2018-Apr-11 17:00N 26°07' W 080°06'0 0.0
2018-Apr-11 16:30N 26°07' W 080°06'0 0.0
2018-Apr-11 16:00N 26°07' W 080°06'0 0.0
2018-Apr-11 15:28N 26°07' W 080°06'0 0.0
2018-Apr-11 15:00N 26°07' W 080°06'0 0.0
2018-Apr-11 14:30N 26°07' W 080°06'0 0.0
2018-Apr-11 14:00N 26°07' W 080°06'0 0.0
2018-Apr-11 13:30N 26°07' W 080°06'0 0.0
2018-Apr-11 13:00N 26°07' W 080°06'0 0.0
2018-Apr-11 12:30N 26°07' W 080°06'0 0.0
2018-Apr-11 12:00N 26°07' W 080°06'0 0.0
2018-Apr-11 11:30N 26°07' W 080°06'0 0.0
2018-Apr-11 11:00N 26°07' W 080°06'0 0.0
2018-Apr-11 10:28N 26°07' W 080°06'0 0.0
2018-Apr-11 10:00N 26°07' W 080°06'0 0.0
2018-Apr-11 09:30N 26°07' W 080°06'0 0.0
2018-Apr-11 09:00N 26°07' W 080°06'0 0.0
2018-Apr-11 08:30N 26°07' W 080°06'0 0.0
2018-Apr-11 08:00N 26°07' W 080°06'0 0.0
2018-Apr-11 07:29N 26°07' W 080°06'0 0.0
2018-Apr-11 07:00N 26°07' W 080°06'0 0.0
2018-Apr-11 06:30N 26°07' W 080°06'0 0.0
2018-Apr-11 06:00N 26°07' W 080°06'0 0.0
2018-Apr-11 05:28N 26°07' W 080°06'0 0.0
2018-Apr-11 05:00N 26°07' W 080°06'0 0.0
2018-Apr-11 04:30N 26°07' W 080°06'0 0.0
2018-Apr-11 03:59N 26°07' W 080°06'0 0.0
2018-Apr-11 03:30N 26°07' W 080°06'0 0.0
2018-Apr-11 03:00N 26°07' W 080°06'0 0.0
2018-Apr-11 02:29N 26°07' W 080°06'0 0.0
2018-Apr-10 20:16N 26°07' W 080°06'0 0.0
2018-Apr-10 19:44N 26°07' W 080°06'0 0.0
2018-Apr-10 19:30N 26°07' W 080°06'0 0.0
2018-Apr-10 19:00N 26°07' W 080°06'0 0.0
2018-Apr-10 18:30N 26°07' W 080°06'0 0.0
2018-Apr-10 18:00N 26°07' W 080°06'0 0.0
2018-Apr-10 17:30N 26°07' W 080°06'0 0.0
2018-Apr-10 17:00N 26°07' W 080°06'0 0.0
2018-Apr-10 16:30N 26°07' W 080°06'0 0.0
2018-Apr-10 16:00N 26°07' W 080°06'0 0.0
2018-Apr-10 15:30N 26°07' W 080°06'0 0.0
2018-Apr-10 15:00N 26°07' W 080°06'0 0.0
2018-Apr-10 14:30N 26°07' W 080°06'0 0.0
2018-Apr-10 14:00N 26°07' W 080°06'0 0.0
2018-Apr-10 13:30N 26°07' W 080°06'0 0.0
2018-Apr-10 12:59N 26°07' W 080°06'0 0.0
2018-Apr-10 12:30N 26°07' W 080°06'0 0.0
2018-Apr-10 11:59N 26°07' W 080°06'0 0.0
2018-Apr-10 11:30N 26°07' W 080°06'0 0.0
2018-Apr-10 11:00N 26°07' W 080°06'0 0.0
2018-Apr-10 10:29N 26°07' W 080°06'0 0.0
2018-Apr-10 10:00N 26°07' W 080°06'0 0.0
2018-Apr-10 09:30N 26°07' W 080°06'0 0.0
2018-Apr-10 08:58N 26°07' W 080°06'0 0.0
2018-Apr-10 08:30N 26°07' W 080°06'0 0.0
2018-Apr-10 07:59N 26°07' W 080°06'0 0.0
2018-Apr-10 07:30N 26°07' W 080°06'0 0.0
2018-Apr-10 07:00N 26°07' W 080°06'0 0.0
2018-Apr-10 06:30N 26°07' W 080°06'0 0.0
2018-Apr-10 06:00N 26°07' W 080°06'0 0.0
2018-Apr-10 05:30N 26°07' W 080°06'0 0.0
2018-Apr-10 05:00N 26°07' W 080°06'0 0.0
2018-Apr-10 04:30N 26°07' W 080°06'0 0.0
2018-Apr-10 03:59N 26°07' W 080°06'0 0.0
2018-Apr-10 03:30N 26°07' W 080°06'0 0.0
2018-Apr-10 03:00N 26°07' W 080°06'0 0.0
2018-Apr-10 02:30N 26°07' W 080°06'0 0.0
2018-Apr-10 02:00N 26°07' W 080°06'0 0.0
2018-Apr-10 01:30N 26°07' W 080°06'0 0.0
2018-Apr-10 01:00N 26°07' W 080°06'0 0.0
2018-Apr-10 00:30N 26°07' W 080°06'0 0.0
2018-Apr-10 00:00N 26°07' W 080°06'0 0.0
2018-Apr-09 23:30N 26°07' W 080°06'0 0.0
2018-Apr-09 23:00N 26°07' W 080°06'0 0.0
2018-Apr-09 22:30N 26°07' W 080°06'0 0.0
2018-Apr-09 22:00N 26°07' W 080°06'0 0.0
2018-Apr-09 21:30N 26°07' W 080°06'0 0.0
2018-Apr-09 21:00N 26°07' W 080°06'0 0.0
2018-Apr-09 20:30N 26°07' W 080°06'0 0.0
2018-Apr-09 20:00N 26°07' W 080°06'  
Track history (hours):
 
Tides and Currents Weather Stations Pressure Air Temp Water Temp Dewpoint Dewpoint Depression Visibility Wind Speed Wind Dir Waves Ship Positions

Cuor Di Leone

Last reported at 2018-Apr-19 19:35 UTC. Time now 2018-Apr-21 19:00 UTC.
Position N 26°02' W 079°46'.

Length 49 m; draft 3 m.

Type: Other ship. MMSI: 319013700.

Date/timePositionNaut miles runAvg speedWind from/ knotsBaromVisibWave heightAir tempDewpointWater temp
2018-Apr-19 19:35N 26°02' W 079°46'1 9.9
2018-Apr-19 19:29N 26°02' W 079°47'5 9.7
2018-Apr-19 19:00N 26°03' W 079°52'5 9.2
2018-Apr-19 18:30N 26°05' W 079°57'5 9.4
2018-Apr-19 18:00N 26°06' W 080°02'5 9.5
2018-Apr-19 17:30N 26°06' W 080°07'1 2.0
2018-Apr-19 17:00N 26°07' W 080°06'0 0.0
2018-Apr-19 16:30N 26°07' W 080°06'0 0.0
2018-Apr-19 16:00N 26°07' W 080°06'0 0.0
2018-Apr-19 15:30N 26°07' W 080°06'0 0.0
2018-Apr-19 15:00N 26°07' W 080°06'0 0.0
2018-Apr-19 14:30N 26°07' W 080°06'0 0.0
2018-Apr-19 14:00N 26°07' W 080°06'0 0.0
2018-Apr-19 13:30N 26°07' W 080°06'0 0.0
2018-Apr-19 13:00N 26°07' W 080°06'0 0.0
2018-Apr-19 12:30N 26°07' W 080°06'0 0.0
2018-Apr-19 12:00N 26°07' W 080°06'0 0.0
2018-Apr-19 11:30N 26°07' W 080°06'0 0.0
2018-Apr-19 10:59N 26°07' W 080°06'0 0.0
2018-Apr-19 10:30N 26°07' W 080°06'0 0.0
2018-Apr-19 09:59N 26°07' W 080°06'0 0.0
2018-Apr-19 09:30N 26°07' W 080°06'0 0.0
2018-Apr-19 08:58N 26°07' W 080°06'0 0.0
2018-Apr-19 08:27N 26°07' W 080°06'0 0.0
2018-Apr-19 08:00N 26°07' W 080°06'0 0.0
2018-Apr-19 07:30N 26°07' W 080°06'0 0.0
2018-Apr-19 07:00N 26°07' W 080°06'0 0.0
2018-Apr-19 06:30N 26°07' W 080°06'0 0.0
2018-Apr-19 06:00N 26°07' W 080°06'0 0.0
2018-Apr-19 05:30N 26°07' W 080°06'0 0.0
2018-Apr-19 04:59N 26°07' W 080°06'0 0.0
2018-Apr-19 04:29N 26°07' W 080°06'0 0.0
2018-Apr-19 04:00N 26°07' W 080°06'0 0.0
2018-Apr-19 03:30N 26°07' W 080°06'0 0.0
2018-Apr-19 03:00N 26°07' W 080°06'0 0.0
2018-Apr-19 02:30N 26°07' W 080°06'0 0.0
2018-Apr-19 02:00N 26°07' W 080°06'0 0.0
2018-Apr-19 01:30N 26°07' W 080°06'0 0.0
2018-Apr-19 00:58N 26°07' W 080°06'0 0.0
2018-Apr-19 00:30N 26°07' W 080°06'0 0.0
2018-Apr-18 23:59N 26°07' W 080°06'0 0.0
2018-Apr-18 23:30N 26°07' W 080°06'0 0.0
2018-Apr-18 23:00N 26°07' W 080°06'0 0.6
2018-Apr-18 22:30N 26°07' W 080°07'0 0.0
2018-Apr-18 22:00N 26°07' W 080°07'0 0.0
2018-Apr-18 21:30N 26°07' W 080°07'0 0.0
2018-Apr-18 21:00N 26°07' W 080°07'0 0.0
2018-Apr-18 20:31N 26°07' W 080°07'0 0.0
2018-Apr-18 20:00N 26°07' W 080°07'0 0.9
2018-Apr-18 19:30N 26°07' W 080°07'3 5.7
2018-Apr-18 19:01N 26°06' W 080°04'611.5
2018-Apr-18 18:30N 26°11' W 080°04'611.2
2018-Apr-18 18:00N 26°06' W 080°05'2 4.1
2018-Apr-18 17:30N 26°07' W 080°07'0 0.1
2018-Apr-18 16:52N 26°07' W 080°06'0 0.0
2018-Apr-18 16:22N 26°07' W 080°06'0 0.0
2018-Apr-18 15:55N 26°07' W 080°07'0 0.0
2018-Apr-18 15:22N 26°07' W 080°06'0 0.0
2018-Apr-18 14:55N 26°07' W 080°07'0 0.0
2018-Apr-18 14:10N 26°07' W 080°07'0 0.0
2018-Apr-18 13:55N 26°07' W 080°06'0 0.0
2018-Apr-18 13:25N 26°07' W 080°06'0 0.0
2018-Apr-18 12:55N 26°07' W 080°07'0 0.0
2018-Apr-18 12:25N 26°07' W 080°07'0 0.0
2018-Apr-18 11:40N 26°07' W 080°07'0 0.0
2018-Apr-18 11:22N 26°07' W 080°07'0 0.0
2018-Apr-18 10:58N 26°07' W 080°06'0 0.0
2018-Apr-18 10:28N 26°07' W 080°07'0 0.0
2018-Apr-18 09:58N 26°07' W 080°07'0 0.0
2018-Apr-18 09:28N 26°07' W 080°06'0 0.0
2018-Apr-18 08:58N 26°07' W 080°07'0 0.0
2018-Apr-18 08:16N 26°07' W 080°07'0 0.0
2018-Apr-18 07:58N 26°07' W 080°07'0 0.0
2018-Apr-18 07:16N 26°07' W 080°07'0 0.0
2018-Apr-18 06:49N 26°07' W 080°07'0 0.0
2018-Apr-18 06:28N 26°07' W 080°07'0 0.0
2018-Apr-18 05:58N 26°07' W 080°07'0 0.0
2018-Apr-18 05:28N 26°07' W 080°07'0 0.0
2018-Apr-18 04:58N 26°07' W 080°07'0 0.0
2018-Apr-18 04:19N 26°07' W 080°07'0 0.0
2018-Apr-18 03:49N 26°07' W 080°06'0 0.0
2018-Apr-18 03:22N 26°07' W 080°06'0 0.0
2018-Apr-18 02:52N 26°07' W 080°07'0 0.0
2018-Apr-18 02:22N 26°07' W 080°07'0 0.0
2018-Apr-18 01:55N 26°07' W 080°07'0 0.0
2018-Apr-18 01:22N 26°07' W 080°06'0 0.0
2018-Apr-18 00:52N 26°07' W 080°07'0 0.0
2018-Apr-18 00:25N 26°07' W 080°06'0 0.0
2018-Apr-17 23:55N 26°07' W 080°07'0 0.0
2018-Apr-17 23:25N 26°07' W 080°07'0 0.0
2018-Apr-17 22:55N 26°07' W 080°07'0 0.0
2018-Apr-17 22:25N 26°07' W 080°07'0 0.0
2018-Apr-17 21:55N 26°07' W 080°07'0 0.0
2018-Apr-17 21:28N 26°07' W 080°06'0 0.0
2018-Apr-17 20:55N 26°07' W 080°06'0 0.0
2018-Apr-17 20:28N 26°07' W 080°06'0 0.0
2018-Apr-17 19:58N 26°07' W 080°06'0 0.0
2018-Apr-17 19:28N 26°07' W 080°06'0 0.0
2018-Apr-17 18:58N 26°07' W 080°06'0 0.0
2018-Apr-17 18:28N 26°07' W 080°06'0 0.0
2018-Apr-17 17:46N 26°07' W 080°06'0 0.0
2018-Apr-17 17:28N 26°07' W 080°06'0 0.0
2018-Apr-17 16:58N 26°07' W 080°06'0 0.0
2018-Apr-17 16:28N 26°07' W 080°06'0 0.0
2018-Apr-17 15:58N 26°07' W 080°06'0 0.0
2018-Apr-17 15:28N 26°07' W 080°06'0 0.0
2018-Apr-17 14:58N 26°07' W 080°06'0 0.0
2018-Apr-17 14:19N 26°07' W 080°06'0 0.0
2018-Apr-17 13:58N 26°07' W 080°06'0 0.0
2018-Apr-17 13:22N 26°07' W 080°06'0 0.0
2018-Apr-17 12:52N 26°07' W 080°06'0 0.0
2018-Apr-17 12:22N 26°07' W 080°06'0 0.0
2018-Apr-17 11:56N 26°07' W 080°06'0 0.0
2018-Apr-17 11:30N 26°07' W 080°06'0 0.0
2018-Apr-17 10:59N 26°07' W 080°06'0 0.0
2018-Apr-17 10:30N 26°07' W 080°06'0 0.0
2018-Apr-17 10:00N 26°07' W 080°06'0 0.0
2018-Apr-17 09:30N 26°07' W 080°06'0 0.0
2018-Apr-17 09:00N 26°07' W 080°06'0 0.0
2018-Apr-17 08:30N 26°07' W 080°06'0 0.0
2018-Apr-17 08:00N 26°07' W 080°06'0 0.0
2018-Apr-17 07:30N 26°07' W 080°06'0 0.0
2018-Apr-17 06:59N 26°07' W 080°06'0 0.0
2018-Apr-17 06:30N 26°07' W 080°06'0 0.0
2018-Apr-17 06:00N 26°07' W 080°06'0 0.0
2018-Apr-17 05:29N 26°07' W 080°06'0 0.0
2018-Apr-17 05:00N 26°07' W 080°06'0 0.0
2018-Apr-17 04:30N 26°07' W 080°06'0 0.0
2018-Apr-17 04:00N 26°07' W 080°06'0 0.0
2018-Apr-17 03:30N 26°07' W 080°06'0 0.0
2018-Apr-17 03:00N 26°07' W 080°06'0 0.0
2018-Apr-17 02:30N 26°07' W 080°06'0 0.0
2018-Apr-17 01:58N 26°07' W 080°06'0 0.0
2018-Apr-17 01:27N 26°07' W 080°06'0 0.0
2018-Apr-17 01:00N 26°07' W 080°06'0 0.0
2018-Apr-17 00:30N 26°07' W 080°06'0 0.0
2018-Apr-17 00:00N 26°07' W 080°06'0 0.0
2018-Apr-16 23:30N 26°07' W 080°06'0 0.0
2018-Apr-16 23:00N 26°07' W 080°06'0 0.0
2018-Apr-16 22:30N 26°07' W 080°06'0 0.0
2018-Apr-16 21:59N 26°07' W 080°06'0 0.0
2018-Apr-16 21:30N 26°07' W 080°06'0 0.0
2018-Apr-16 21:00N 26°07' W 080°06'0 0.0
2018-Apr-16 20:30N 26°07' W 080°06'0 0.0
2018-Apr-16 20:00N 26°07' W 080°06'0 0.0
2018-Apr-16 19:30N 26°07' W 080°06'0 0.0
2018-Apr-16 19:00N 26°07' W 080°06'0 0.0
2018-Apr-16 18:30N 26°07' W 080°06'0 0.0
2018-Apr-16 18:00N 26°07' W 080°06'0 0.0
2018-Apr-16 17:30N 26°07' W 080°06'0 0.0
2018-Apr-16 16:59N 26°07' W 080°06'0 0.0
2018-Apr-16 16:29N 26°07' W 080°06'0 0.0
2018-Apr-16 16:00N 26°07' W 080°06'0 0.0
2018-Apr-16 15:29N 26°07' W 080°06'0 0.0
2018-Apr-16 15:00N 26°07' W 080°06'0 0.0
2018-Apr-16 14:30N 26°07' W 080°06'0 0.0
2018-Apr-16 14:00N 26°07' W 080°06'0 0.0
2018-Apr-16 13:30N 26°07' W 080°06'0 0.0
2018-Apr-16 13:00N 26°07' W 080°06'0 0.0
2018-Apr-16 12:29N 26°07' W 080°06'0 0.0
2018-Apr-16 12:00N 26°07' W 080°06'0 0.0
2018-Apr-16 11:30N 26°07' W 080°06'0 0.0
2018-Apr-16 10:59N 26°07' W 080°06'0 0.0
2018-Apr-16 10:30N 26°07' W 080°06'0 0.0
2018-Apr-16 10:00N 26°07' W 080°06'0 0.0
2018-Apr-16 09:30N 26°07' W 080°06'0 0.0
2018-Apr-16 09:00N 26°07' W 080°06'0 0.0
2018-Apr-16 08:30N 26°07' W 080°06'0 0.0
2018-Apr-16 08:00N 26°07' W 080°06'0 0.0
2018-Apr-16 07:29N 26°07' W 080°06'0 0.0
2018-Apr-16 07:00N 26°07' W 080°06'0 0.0
2018-Apr-16 06:30N 26°07' W 080°06'0 0.0
2018-Apr-16 06:00N 26°07' W 080°06'0 0.0
2018-Apr-16 05:30N 26°07' W 080°06'0 0.0
2018-Apr-16 05:00N 26°07' W 080°06'0 0.0
2018-Apr-16 04:30N 26°07' W 080°06'0 0.0
2018-Apr-16 04:00N 26°07' W 080°06'0 0.0
2018-Apr-16 03:30N 26°07' W 080°06'0 0.0
2018-Apr-16 03:00N 26°07' W 080°06'0 0.0
2018-Apr-16 02:26N 26°07' W 080°06'0 0.0
2018-Apr-16 02:00N 26°07' W 080°06'0 0.0
2018-Apr-16 01:30N 26°07' W 080°06'0 0.0
2018-Apr-16 01:00N 26°07' W 080°06'0 0.0
2018-Apr-16 00:30N 26°07' W 080°06'0 0.0
2018-Apr-16 00:00N 26°07' W 080°06'0 0.0
2018-Apr-15 23:30N 26°07' W 080°06'0 0.0
2018-Apr-15 23:00N 26°07' W 080°06'0 0.0
2018-Apr-15 22:28N 26°07' W 080°06'0 0.0
2018-Apr-15 22:00N 26°07' W 080°06'0 0.0
2018-Apr-15 21:30N 26°07' W 080°06'0 0.0
2018-Apr-15 21:00N 26°07' W 080°06'0 0.0
2018-Apr-15 20:30N 26°07' W 080°06'0 0.0
2018-Apr-15 20:00N 26°07' W 080°06'0 0.0
2018-Apr-15 19:30N 26°07' W 080°06'0 0.0
2018-Apr-15 19:00N 26°07' W 080°06'0 0.0
2018-Apr-15 18:30N 26°07' W 080°06'0 0.0
2018-Apr-15 17:59N 26°07' W 080°06'0 0.0
2018-Apr-15 17:30N 26°07' W 080°06'0 0.0
2018-Apr-15 17:00N 26°07' W 080°06'0 0.0
2018-Apr-15 16:30N 26°07' W 080°06'0 0.0
2018-Apr-15 16:00N 26°07' W 080°06'0 0.0
2018-Apr-15 15:30N 26°07' W 080°06'0 0.0
2018-Apr-15 15:00N 26°07' W 080°06'0 0.0
2018-Apr-15 14:30N 26°07' W 080°06'0 0.0
2018-Apr-15 14:00N 26°07' W 080°06'0 0.0
2018-Apr-15 13:30N 26°07' W 080°06'0 0.0
2018-Apr-15 12:58N 26°07' W 080°06'0 0.0
2018-Apr-15 12:29N 26°07' W 080°06'0 0.0
2018-Apr-15 11:59N 26°07' W 080°06'0 0.0
2018-Apr-15 11:30N 26°07' W 080°06'0 0.0
2018-Apr-15 11:00N 26°07' W 080°06'0 0.0
2018-Apr-15 10:30N 26°07' W 080°06'0 0.0
2018-Apr-15 10:00N 26°07' W 080°06'0 0.0
2018-Apr-15 09:30N 26°07' W 080°06'0 0.0
2018-Apr-15 09:00N 26°07' W 080°06'0 0.0
2018-Apr-15 08:30N 26°07' W 080°06'0 0.0
2018-Apr-15 07:59N 26°07' W 080°06'0 0.0
2018-Apr-15 07:30N 26°07' W 080°06'0 0.0
2018-Apr-15 07:00N 26°07' W 080°06'0 0.0
2018-Apr-15 06:30N 26°07' W 080°06'0 0.0
2018-Apr-15 06:00N 26°07' W 080°06'0 0.0
2018-Apr-15 05:30N 26°07' W 080°06'0 0.0
2018-Apr-15 05:00N 26°07' W 080°06'0 0.0
2018-Apr-15 04:30N 26°07' W 080°06'0 0.0
2018-Apr-15 04:00N 26°07' W 080°06'0 0.0
2018-Apr-15 03:30N 26°07' W 080°06'0 0.0
2018-Apr-15 03:00N 26°07' W 080°06'0 0.0
2018-Apr-15 02:27N 26°07' W 080°06'0 0.0
2018-Apr-15 02:00N 26°07' W 080°06'0 0.0
2018-Apr-15 01:30N 26°07' W 080°06'0 0.0
2018-Apr-15 01:00N 26°07' W 080°06'0 0.0
2018-Apr-15 00:29N 26°07' W 080°06'0 0.0
2018-Apr-15 00:00N 26°07' W 080°06'0 0.0
2018-Apr-14 23:29N 26°07' W 080°06'0 0.0
2018-Apr-14 23:00N 26°07' W 080°06'0 0.0
2018-Apr-14 22:29N 26°07' W 080°06'0 0.0
2018-Apr-14 21:58N 26°07' W 080°06'0 0.0
2018-Apr-14 21:30N 26°07' W 080°06'0 0.0
2018-Apr-14 21:00N 26°07' W 080°06'0 0.0
2018-Apr-14 20:30N 26°07' W 080°06'0 0.0
2018-Apr-14 20:00N 26°07' W 080°06'0 0.0
2018-Apr-14 19:30N 26°07' W 080°06'0 0.0
2018-Apr-14 19:00N 26°07' W 080°06'0 0.0
2018-Apr-14 18:30N 26°07' W 080°06'0 0.0
2018-Apr-14 17:59N 26°07' W 080°06'0 0.0
2018-Apr-14 17:30N 26°07' W 080°06'0 0.0
2018-Apr-14 17:00N 26°07' W 080°06'0 0.0
2018-Apr-14 16:30N 26°07' W 080°06'0 0.0
2018-Apr-14 16:00N 26°07' W 080°06'0 0.0
2018-Apr-14 15:30N 26°07' W 080°06'0 0.0
2018-Apr-14 15:00N 26°07' W 080°06'0 0.0
2018-Apr-14 14:29N 26°07' W 080°06'0 0.0
2018-Apr-14 14:00N 26°07' W 080°06'0 0.0
2018-Apr-14 13:30N 26°07' W 080°06'0 0.0
2018-Apr-14 13:00N 26°07' W 080°06'0 0.0
2018-Apr-14 12:30N 26°07' W 080°06'0 0.0
2018-Apr-14 12:00N 26°07' W 080°06'0 0.0
2018-Apr-14 11:30N 26°07' W 080°06'0 0.0
2018-Apr-14 11:00N 26°07' W 080°06'0 0.0
2018-Apr-14 10:30N 26°07' W 080°06'0 0.0
2018-Apr-14 09:58N 26°07' W 080°06'0 0.0
2018-Apr-14 09:30N 26°07' W 080°06'0 0.0
2018-Apr-14 08:58N 26°07' W 080°06'0 0.0
2018-Apr-14 08:29N 26°07' W 080°06'0 0.0
2018-Apr-14 08:00N 26°07' W 080°06'0 0.0
2018-Apr-14 07:30N 26°07' W 080°06'0 0.0
2018-Apr-14 07:00N 26°07' W 080°06'0 0.0
2018-Apr-14 06:30N 26°07' W 080°06'0 0.0
2018-Apr-14 06:00N 26°07' W 080°06'0 0.0
2018-Apr-14 05:30N 26°07' W 080°06'0 0.0
2018-Apr-14 05:00N 26°07' W 080°06'0 0.0
2018-Apr-14 04:30N 26°07' W 080°06'0 0.0
2018-Apr-14 04:00N 26°07' W 080°06'0 0.0
2018-Apr-14 03:30N 26°07' W 080°06'0 0.0
2018-Apr-14 03:00N 26°07' W 080°06'0 0.0
2018-Apr-14 02:29N 26°07' W 080°06'0 0.0
2018-Apr-14 02:00N 26°07' W 080°06'0 0.0
2018-Apr-14 01:30N 26°07' W 080°06'0 0.0
2018-Apr-14 00:59N 26°07' W 080°06'0 0.0
2018-Apr-14 00:30N 26°07' W 080°06'0 0.0
2018-Apr-14 00:00N 26°07' W 080°06'0 0.0
2018-Apr-13 23:30N 26°07' W 080°06'0 0.0
2018-Apr-13 23:00N 26°07' W 080°06'0 0.0
2018-Apr-13 22:30N 26°07' W 080°06'0 0.0
2018-Apr-13 21:59N 26°07' W 080°06'0 0.0
2018-Apr-13 21:29N 26°07' W 080°06'0 0.0
2018-Apr-13 20:59N 26°07' W 080°06'0 0.0
2018-Apr-13 20:30N 26°07' W 080°06'0 0.0
2018-Apr-13 19:59N 26°07' W 080°06'0 0.0
2018-Apr-13 19:29N 26°07' W 080°06'0 0.0
2018-Apr-13 19:00N 26°07' W 080°06'0 0.0
2018-Apr-13 18:30N 26°07' W 080°06'0 0.0
2018-Apr-13 18:00N 26°07' W 080°06'0 0.0
2018-Apr-13 17:30N 26°07' W 080°06'0 0.0
2018-Apr-13 17:00N 26°07' W 080°06'0 0.0
2018-Apr-13 16:30N 26°07' W 080°06'0 0.0
2018-Apr-13 16:00N 26°07' W 080°06'0 0.0
2018-Apr-13 15:28N 26°07' W 080°06'0 0.0
2018-Apr-13 15:00N 26°07' W 080°06'0 0.0
2018-Apr-13 14:30N 26°07' W 080°06'0 0.0
2018-Apr-13 13:58N 26°07' W 080°06'0 0.0
2018-Apr-13 13:29N 26°07' W 080°06'0 0.0
2018-Apr-13 13:00N 26°07' W 080°06'0 0.0
2018-Apr-13 12:30N 26°07' W 080°06'0 0.0
2018-Apr-13 12:00N 26°07' W 080°06'0 0.0
2018-Apr-13 11:30N 26°07' W 080°06'0 0.0
2018-Apr-13 11:00N 26°07' W 080°06'0 0.0
2018-Apr-13 10:28N 26°07' W 080°06'0 0.0
2018-Apr-13 10:00N 26°07' W 080°06'0 0.0
2018-Apr-13 09:30N 26°07' W 080°06'0 0.0
2018-Apr-13 09:00N 26°07' W 080°06'0 0.0
2018-Apr-13 08:30N 26°07' W 080°06'0 0.0
2018-Apr-13 08:00N 26°07' W 080°06'0 0.0
2018-Apr-13 07:29N 26°07' W 080°06'0 0.0
2018-Apr-13 07:00N 26°07' W 080°06'0 0.0
2018-Apr-13 06:29N 26°07' W 080°06'0 0.0
2018-Apr-13 06:00N 26°07' W 080°06'0 0.0
2018-Apr-13 05:30N 26°07' W 080°06'0 0.0
2018-Apr-13 05:00N 26°07' W 080°06'0 0.0
2018-Apr-13 04:30N 26°07' W 080°06'0 0.0
2018-Apr-13 04:00N 26°07' W 080°06'0 0.0
2018-Apr-13 03:29N 26°07' W 080°06'0 0.0
2018-Apr-13 03:00N 26°07' W 080°06'0 0.0
2018-Apr-13 02:27N 26°07' W 080°06'0 0.0
2018-Apr-13 02:00N 26°07' W 080°06'0 0.0
2018-Apr-13 01:30N 26°07' W 080°06'0 0.0
2018-Apr-13 01:00N 26°07' W 080°06'0 0.0
2018-Apr-13 00:30N 26°07' W 080°06'0 0.0
2018-Apr-13 00:00N 26°07' W 080°06'0 0.0
2018-Apr-12 23:30N 26°07' W 080°06'0 0.0
2018-Apr-12 23:00N 26°07' W 080°06'0 0.0
2018-Apr-12 22:30N 26°07' W 080°06'0 0.0
2018-Apr-12 22:00N 26°07' W 080°06'0 0.0
2018-Apr-12 21:29N 26°07' W 080°06'0 0.0
2018-Apr-12 21:00N 26°07' W 080°06'0 0.0
2018-Apr-12 20:30N 26°07' W 080°06'0 0.0
2018-Apr-12 20:00N 26°07' W 080°06'0 0.0
2018-Apr-12 19:29N 26°07' W 080°06'0 0.0
2018-Apr-12 19:00N 26°07' W 080°06'0 0.0
2018-Apr-12 18:30N 26°07' W 080°06'0 0.0
2018-Apr-12 18:00N 26°07' W 080°06'0 0.0
2018-Apr-12 17:30N 26°07' W 080°06'0 0.0
2018-Apr-12 17:00N 26°07' W 080°06'0 0.0
2018-Apr-12 16:30N 26°07' W 080°06'0 0.0
2018-Apr-12 16:00N 26°07' W 080°06'0 0.0
2018-Apr-12 15:30N 26°07' W 080°06'0 0.0
2018-Apr-12 15:00N 26°07' W 080°06'0 0.0
2018-Apr-12 14:30N 26°07' W 080°06'0 0.0
2018-Apr-12 14:00N 26°07' W 080°06'0 0.0
2018-Apr-12 13:30N 26°07' W 080°06'0 0.0
2018-Apr-12 13:00N 26°07' W 080°06'0 0.0
2018-Apr-12 12:30N 26°07' W 080°06'0 0.0
2018-Apr-12 12:00N 26°07' W 080°06'0 0.0
2018-Apr-12 11:30N 26°07' W 080°06'0 0.0
2018-Apr-12 11:00N 26°07' W 080°06'0 0.0
2018-Apr-12 10:30N 26°07' W 080°06'0 0.0
2018-Apr-12 10:00N 26°07' W 080°06'0 0.0
2018-Apr-12 09:30N 26°07' W 080°06'0 0.0
2018-Apr-12 09:00N 26°07' W 080°06'0 0.0
2018-Apr-12 08:30N 26°07' W 080°06'0 0.0
2018-Apr-12 08:00N 26°07' W 080°06'0 0.0
2018-Apr-12 07:30N 26°07' W 080°06'0 0.0
2018-Apr-12 07:00N 26°07' W 080°06'0 0.0
2018-Apr-12 06:30N 26°07' W 080°06'0 0.0
2018-Apr-12 06:00N 26°07' W 080°06'0 0.0
2018-Apr-12 05:30N 26°07' W 080°06'0 0.0
2018-Apr-12 05:00N 26°07' W 080°06'0 0.0
2018-Apr-12 04:30N 26°07' W 080°06'0 0.0
2018-Apr-12 04:00N 26°07' W 080°06'0 0.0
2018-Apr-12 03:30N 26°07' W 080°06'0 0.0
2018-Apr-12 03:00N 26°07' W 080°06'0 0.0
2018-Apr-12 02:30N 26°07' W 080°06'0 0.0
2018-Apr-12 02:00N 26°07' W 080°06'0 0.0
2018-Apr-12 01:30N 26°07' W 080°06'0 0.0
2018-Apr-12 01:00N 26°07' W 080°06'0 0.0
2018-Apr-12 00:30N 26°07' W 080°06'0 0.0
2018-Apr-12 00:00N 26°07' W 080°06'0 0.0
2018-Apr-11 23:30N 26°07' W 080°06'0 0.0
2018-Apr-11 23:00N 26°07' W 080°06'0 0.0
2018-Apr-11 22:29N 26°07' W 080°06'0 0.0
2018-Apr-11 21:59N 26°07' W 080°06'0 0.0
2018-Apr-11 21:30N 26°07' W 080°06'0 0.0
2018-Apr-11 20:58N 26°07' W 080°06'0 0.0
2018-Apr-11 20:29N 26°07' W 080°06'0 0.0
2018-Apr-11 19:59N 26°07' W 080°06'0 0.0
2018-Apr-11 19:30N 26°07' W 080°06'0 0.0
2018-Apr-11 18:59N 26°07' W 080°06'0 0.0
2018-Apr-11 18:30N 26°07' W 080°06'0 0.0
2018-Apr-11 18:00N 26°07' W 080°06'0 0.0
2018-Apr-11 17:30N 26°07' W 080°06'0 0.0
2018-Apr-11 17:00N 26°07' W 080°06'0 0.0
2018-Apr-11 16:30N 26°07' W 080°06'0 0.0
2018-Apr-11 16:00N 26°07' W 080°06'0 0.0
2018-Apr-11 15:28N 26°07' W 080°06'0 0.0
2018-Apr-11 15:00N 26°07' W 080°06'0 0.0
2018-Apr-11 14:30N 26°07' W 080°06'0 0.0
2018-Apr-11 14:00N 26°07' W 080°06'0 0.0
2018-Apr-11 13:30N 26°07' W 080°06'0 0.0
2018-Apr-11 13:00N 26°07' W 080°06'0 0.0
2018-Apr-11 12:30N 26°07' W 080°06'0 0.0
2018-Apr-11 12:00N 26°07' W 080°06'0 0.0
2018-Apr-11 11:30N 26°07' W 080°06'0 0.0
2018-Apr-11 11:00N 26°07' W 080°06'0 0.0
2018-Apr-11 10:28N 26°07' W 080°06'0 0.0
2018-Apr-11 10:00N 26°07' W 080°06'0 0.0
2018-Apr-11 09:30N 26°07' W 080°06'0 0.0
2018-Apr-11 09:00N 26°07' W 080°06'0 0.0
2018-Apr-11 08:30N 26°07' W 080°06'0 0.0
2018-Apr-11 08:00N 26°07' W 080°06'0 0.0
2018-Apr-11 07:29N 26°07' W 080°06'0 0.0
2018-Apr-11 07:00N 26°07' W 080°06'0 0.0
2018-Apr-11 06:30N 26°07' W 080°06'0 0.0
2018-Apr-11 06:00N 26°07' W 080°06'0 0.0
2018-Apr-11 05:28N 26°07' W 080°06'0 0.0
2018-Apr-11 05:00N 26°07' W 080°06'0 0.0
2018-Apr-11 04:30N 26°07' W 080°06'0 0.0
2018-Apr-11 03:59N 26°07' W 080°06'0 0.0
2018-Apr-11 03:30N 26°07' W 080°06'0 0.0
2018-Apr-11 03:00N 26°07' W 080°06'0 0.0
2018-Apr-11 02:29N 26°07' W 080°06'0 0.0
2018-Apr-10 20:16N 26°07' W 080°06'0 0.0
2018-Apr-10 19:44N 26°07' W 080°06'0 0.0
2018-Apr-10 19:30N 26°07' W 080°06'0 0.0
2018-Apr-10 19:00N 26°07' W 080°06'0 0.0
2018-Apr-10 18:30N 26°07' W 080°06'0 0.0
2018-Apr-10 18:00N 26°07' W 080°06'0 0.0
2018-Apr-10 17:30N 26°07' W 080°06'0 0.0
2018-Apr-10 17:00N 26°07' W 080°06'0 0.0
2018-Apr-10 16:30N 26°07' W 080°06'0 0.0
2018-Apr-10 16:00N 26°07' W 080°06'0 0.0
2018-Apr-10 15:30N 26°07' W 080°06'0 0.0
2018-Apr-10 15:00N 26°07' W 080°06'0 0.0
2018-Apr-10 14:30N 26°07' W 080°06'0 0.0
2018-Apr-10 14:00N 26°07' W 080°06'0 0.0
2018-Apr-10 13:30N 26°07' W 080°06'0 0.0
2018-Apr-10 12:59N 26°07' W 080°06'0 0.0
2018-Apr-10 12:30N 26°07' W 080°06'0 0.0
2018-Apr-10 11:59N 26°07' W 080°06'0 0.0
2018-Apr-10 11:30N 26°07' W 080°06'0 0.0
2018-Apr-10 11:00N 26°07' W 080°06'0 0.0
2018-Apr-10 10:29N 26°07' W 080°06'0 0.0
2018-Apr-10 10:00N 26°07' W 080°06'0 0.0
2018-Apr-10 09:30N 26°07' W 080°06'0 0.0
2018-Apr-10 08:58N 26°07' W 080°06'0 0.0
2018-Apr-10 08:30N 26°07' W 080°06'0 0.0
2018-Apr-10 07:59N 26°07' W 080°06'0 0.0
2018-Apr-10 07:30N 26°07' W 080°06'0 0.0
2018-Apr-10 07:00N 26°07' W 080°06'0 0.0
2018-Apr-10 06:30N 26°07' W 080°06'0 0.0
2018-Apr-10 06:00N 26°07' W 080°06'0 0.0
2018-Apr-10 05:30N 26°07' W 080°06'0 0.0
2018-Apr-10 05:00N 26°07' W 080°06'0 0.0
2018-Apr-10 04:30N 26°07' W 080°06'0 0.0
2018-Apr-10 03:59N 26°07' W 080°06'0 0.0
2018-Apr-10 03:30N 26°07' W 080°06'0 0.0
2018-Apr-10 03:00N 26°07' W 080°06'0 0.0
2018-Apr-10 02:30N 26°07' W 080°06'0 0.0
2018-Apr-10 02:00N 26°07' W 080°06'0 0.0
2018-Apr-10 01:30N 26°07' W 080°06'0 0.0
2018-Apr-10 01:00N 26°07' W 080°06'0 0.0
2018-Apr-10 00:30N 26°07' W 080°06'0 0.0
2018-Apr-10 00:00N 26°07' W 080°06'0 0.0
2018-Apr-09 23:30N 26°07' W 080°06'0 0.0
2018-Apr-09 23:00N 26°07' W 080°06'0 0.0
2018-Apr-09 22:30N 26°07' W 080°06'0 0.0
2018-Apr-09 22:00N 26°07' W 080°06'0 0.0
2018-Apr-09 21:30N 26°07' W 080°06'0 0.0
2018-Apr-09 21:00N 26°07' W 080°06'0 0.0
2018-Apr-09 20:30N 26°07' W 080°06'0 0.0
2018-Apr-09 20:00N 26°07' W 080°06'  

Dump ship's entire track history